PDT,Max TemperatureF,Mean TemperatureF,Min TemperatureF,Max Dew PointF,MeanDew PointF,Min DewpointF,Max Humidity, Mean Humidity, Min Humidity, Max Sea Level PressureIn, Mean Sea Level PressureIn, Min Sea Level PressureIn, Max VisibilityMiles, Mean VisibilityMiles, Min VisibilityMiles, Max Wind SpeedMPH, Mean Wind SpeedMPH, Max Gust SpeedMPH,PrecipitationIn, CloudCover, Events, WindDirDegrees
2012-9-1,72,62,51,50,48,47,89,67,41,30.14,30.10,30.01,10,10,10,8,2,,0.00,1,,216
2012-9-2,70,62,53,50,47,38,83,62,31,30.21,30.17,30.13,10,10,10,8,2,,0.00,2,,214
2012-9-3,71,62,55,54,51,48,88,69,49,30.19,30.15,30.12,10,10,10,10,2,16,0.00,2,,321
2012-9-4,73,63,53,54,51,48,90,66,41,30.21,30.16,30.11,10,10,10,12,3,20,0.00,0,,313
2012-9-5,77,65,55,54,53,50,89,65,41,30.10,30.02,29.94,10,10,10,10,2,18,0.00,1,,313
2012-9-6,79,69,59,55,52,48,83,57,35,30.05,30.01,29.96,10,10,10,9,4,17,0.00,0,,328
2012-9-7,84,72,60,53,50,45,75,50,25,30.13,30.07,30.01,10,10,10,9,2,,0.00,0,,317
2012-9-8,80,68,57,56,53,50,81,62,38,30.02,29.97,29.91,10,10,10,12,3,17,0.00,0,,180
2012-9-9,66,62,57,54,51,49,81,69,56,30.02,29.99,29.97,10,10,10,15,9,22,0.00,8,,173
2012-9-10,66,58,53,54,46,38,86,66,37,30.22,30.11,29.96,10,9,4,14,7,21,0.02,6,Rain,114
2012-9-11,64,58,52,46,42,38,75,57,41,30.32,30.29,30.23,10,10,10,9,4,22,0.00,2,,327
2012-9-12,68,60,51,47,45,41,80,60,45,30.35,30.29,30.23,10,10,10,10,5,,0.00,0,,325
2012-9-13,77,65,53,48,46,42,83,55,32,30.23,30.14,30.04,10,10,10,8,3,,0.00,0,,327
2012-9-14,75,64,54,52,48,44,83,59,33,30.09,30.05,30.01,10,10,10,9,2,,0.00,0,,315
2012-9-15,73,62,52,52,50,48,89,66,43,30.17,30.13,30.06,10,10,7,6,1,,0.00,0,,300
2012-9-16,75,62,52,53,51,49,89,68,43,30.22,30.17,30.12,10,10,10,7,1,,0.00,0,,307
2012-9-17,78,66,53,54,52,48,94,66,36,30.13,30.07,30.00,10,10,10,7,1,,0.00,1,,337
2012-9-18,80,68,55,54,51,47,87,60,31,30.08,30.03,30.00,10,10,8,6,1,,0.00,0,,318
2012-9-19,72,62,53,54,52,50,100,79,50,30.17,30.12,30.05,10,6,2,8,4,,0.00,4,,289
2012-9-20,70,60,51,54,52,49,94,78,53,30.12,30.08,30.03,10,9,3,8,2,16,0.00,2,Fog,225
2012-9-21,62,60,57,54,52,51,84,78,67,30.15,30.13,30.12,10,10,10,9,5,,0.00,8,,169
2012-9-22,66,60,55,54,52,49,94,77,52,30.17,30.14,30.12,10,9,2,5,1,,0.02,6,Rain,128
2012-9-23,66,57,48,51,48,46,93,72,50,30.17,30.14,30.11,10,10,10,7,1,,0.00,0,,310
2012-9-24,69,59,50,53,50,47,93,71,47,30.15,30.12,30.09,10,10,5,6,1,,0.00,3,,41
2012-9-25,66,60,55,54,51,49,88,74,52,30.15,30.12,30.10,10,10,10,12,2,,0.00,5,,314
2012-9-26,64,58,51,50,49,48,93,77,54,30.13,30.10,30.05,10,9,4,10,1,,0.00,2,,312
2012-9-27,71,61,51,52,50,48,100,75,49,30.08,30.03,29.94,10,9,3,7,1,,0.00,1,,300
2012-9-28,75,64,54,55,52,49,87,69,43,30.01,29.97,29.94,10,9,6,7,1,,0.00,3,,317
2012-9-29,66,60,55,57,49,40,83,66,38,30.30,30.16,30.04,10,10,10,9,4,,0.00,5,Rain,346
2012-9-30,66,57,48,48,45,40,93,64,37,30.41,30.36,30.31,10,10,10,9,1,,0.00,0,,316